Time;durP1;ratioP1;P1;durP2;ratioP2;P2;SDS_P1;SDS_P2;PMS_P1;PMS_P2;Temp;Humidity;BMP_temperature;BMP_pressure;BME280_temperature;BME280_humidity;BME280_pressure;Samples;Min_cycle;Max_cycle;Signal;HPM_P1;HPM_P2
2020/12/23 07:50:47;;;;;;;19.67;12.68;;;0.10;85.30;;;;;;5948581;23;1356679;-65
2020/12/23 07:53:30;;;;;;;19.15;12.32;;;0.10;85.50;;;;;;5964760;23;20411;-63
2020/12/23 07:56:07;;;;;;;15.68;10.55;;;0.10;85.40;;;;;;5944353;23;20323;-68
2020/12/23 07:58:37;;;;;;;17.33;12.27;;;0.20;85.80;;;;;;5955041;23;20347;-64
2020/12/23 08:01:11;;;;;;;18.15;12.18;;;0.20;85.80;;;;;;5971776;23;20544;-69
2020/12/23 08:03:40;;;;;;;20.38;13.05;;;0.30;85.90;;;;;;5948762;23;20367;-68
2020/12/23 08:06:11;;;;;;;18.27;12.32;;;0.30;85.70;;;;;;5975226;23;20641;-64
2020/12/23 08:08:54;;;;;;;19.83;12.77;;;0.40;85.90;;;;;;5951740;23;20518;-66
2020/12/23 08:11:20;;;;;;;19.13;13.45;;;0.50;85.20;;;;;;5913338;23;20455;-65
2020/12/23 08:13:46;;;;;;;21.73;13.85;;;0.50;85.00;;;;;;5963552;23;20399;-66
2020/12/23 08:16:31;;;;;;;21.23;13.35;;;0.60;84.90;;;;;;5960596;23;20591;-70
2020/12/23 08:18:58;;;;;;;20.70;13.73;;;0.50;84.70;;;;;;5930331;23;20588;-64
2020/12/23 08:21:30;;;;;;;23.45;16.15;;;0.60;85.20;;;;;;5967414;23;20479;-69
2020/12/23 08:24:01;;;;;;;22.35;14.35;;;0.70;84.80;;;;;;5965942;23;20402;-66
2020/12/23 08:26:57;;;;;;;21.48;14.57;;;0.70;85.10;;;;;;5915718;23;20518;-65
2020/12/23 08:29:29;;;;;;;22.83;14.23;;;0.80;84.60;;;;;;5954945;23;20742;-66
2020/12/23 08:32:06;;;;;;;;;;;;;;;;;;;;;
2020/12/23 08:34:35;;;;;;;19.00;12.75;;;0.90;84.00;;;;;;5959393;23;20550;-69
2020/12/23 08:37:02;;;;;;;22.15;13.45;;;0.90;84.50;;;;;;5927034;23;20481;-63
2020/12/23 08:39:33;;;;;;;17.58;13.02;;;1.00;83.90;;;;;;5975985;23;20392;-66
2020/12/23 08:42:09;;;;;;;22.50;13.98;;;1.00;83.60;;;;;;5950051;23;20572;-64
2020/12/23 08:44:38;;;;;;;19.52;13.02;;;1.00;83.50;;;;;;5951154;23;20463;-65
2020/12/23 08:47:19;;;;;;;19.55;13.48;;;1.00;83.10;;;;;;5972341;23;20019;-70
2020/12/23 08:49:47;;;;;;;19.40;13.30;;;1.00;82.90;;;;;;5977184;23;20010;-64
2020/12/23 08:52:22;;;;;;;18.92;13.02;;;1.00;82.20;;;;;;5978219;23;20281;-66
2020/12/23 08:54:49;;;;;;;19.52;12.90;;;0.90;81.20;;;;;;5950162;23;20378;-65
2020/12/23 08:57:16;;;;;;;20.92;13.30;;;0.80;81.70;;;;;;5984034;23;20359;-65
2020/12/23 08:59:55;;;;;;;19.08;13.45;;;0.70;82.40;;;;;;5954320;23;20043;-65
2020/12/23 09:02:22;;;;;;;19.85;13.00;;;0.80;82.30;;;;;;5979766;23;20474;-65
2020/12/23 09:05:06;;;;;;;20.95;13.48;;;0.80;81.80;;;;;;5946969;23;20313;-69
2020/12/23 09:07:43;;;;;;;17.95;12.60;;;0.70;82.10;;;;;;5971592;23;20045;-66
2020/12/23 09:10:12;;;;;;;18.05;12.55;;;0.70;82.50;;;;;;5969946;23;20026;-65
2020/12/23 09:12:45;;;;;;;19.77;12.10;;;0.80;83.10;;;;;;5973595;23;20019;-68
2020/12/23 09:15:15;;;;;;;19.85;13.15;;;0.80;83.50;;;;;;5979244;23;20014;-64
2020/12/23 09:17:43;;;;;;;16.73;12.35;;;1.00;82.90;;;;;;5980227;23;20284;-64
2020/12/23 09:20:09;;;;;;;16.75;11.95;;;1.00;83.20;;;;;;5971065;23;20435;-66
2020/12/23 09:22:43;;;;;;;16.17;11.60;;;1.10;83.00;;;;;;5967952;23;20404;-65
2020/12/23 09:25:30;;;;;;;18.45;12.30;;;1.20;83.00;;;;;;5972918;23;20065;-67
2020/12/23 09:28:19;;;;;;;17.65;11.65;;;1.30;82.90;;;;;;5952056;23;20438;-66
2020/12/23 09:31:10;;;;;;;18.25;11.48;;;1.30;82.20;;;;;;5975224;23;20548;-66
2020/12/23 09:33:54;;;;;;;17.30;12.05;;;1.30;81.00;;;;;;5941273;23;20098;-68
2020/12/23 09:36:27;;;;;;;17.48;11.57;;;1.30;81.60;;;;;;5971022;23;20364;-72
2020/12/23 09:38:52;;;;;;;16.02;11.30;;;1.30;81.40;;;;;;5972063;23;20297;-66
2020/12/23 09:41:24;;;;;;;16.70;11.40;;;1.30;82.00;;;;;;5941523;23;20320;-65
2020/12/23 09:43:50;;;;;;;17.55;12.23;;;1.30;81.50;;;;;;5971270;23;20302;-66
2020/12/23 09:46:22;;;;;;;17.33;11.27;;;1.40;81.20;;;;;;5988354;23;20724;-68
2020/12/23 09:48:56;;;;;;;15.98;11.80;;;1.40;82.00;;;;;;5957987;23;20823;-66
2020/12/23 09:51:25;;;;;;;17.55;12.35;;;1.50;82.50;;;;;;5978632;23;20433;-65
2020/12/23 09:53:50;;;;;;;16.17;11.70;;;1.60;81.50;;;;;;5978584;23;20760;-65
2020/12/23 09:56:16;;;;;;;18.25;11.82;;;1.70;81.80;;;;;;5981704;23;20391;-70
2020/12/23 09:58:42;;;;;;;17.27;12.25;;;1.90;80.80;;;;;;5975638;23;20033;-63
2020/12/23 10:01:08;;;;;;;18.10;12.82;;;1.90;79.60;;;;;;5979505;23;20445;-68
2020/12/23 10:03:36;;;;;;;18.30;12.15;;;1.80;80.00;;;;;;5959575;23;20545;-67
2020/12/23 10:06:02;;;;;;;19.35;13.65;;;1.80;80.50;;;;;;5975178;23;20029;-65
2020/12/23 10:08:30;;;;;;;17.95;12.00;;;2.00;80.00;;;;;;5956578;23;20015;-65
2020/12/23 10:13:50;;;;;;;18.50;12.00;;;1.90;79.60;;;;;;5982310;23;20019;-73
2020/12/23 10:17:08;;;;;;;18.23;12.30;;;1.90;79.60;;;;;;5954172;23;20458;-70
2020/12/23 10:22:29;;;;;;;20.90;13.13;;;1.70;79.00;;;;;;5834167;24;20048;-68
2020/12/23 10:25:02;;;;;;;17.10;12.15;;;1.70;78.50;;;;;;5927410;23;20312;-68
2020/12/23 10:27:28;;;;;;;18.73;12.23;;;1.60;79.00;;;;;;5978184;23;20007;-70
2020/12/23 10:29:58;;;;;;;19.10;12.38;;;1.60;79.70;;;;;;5970777;23;20422;-69
2020/12/23 10:32:59;;;;;;;17.73;12.05;;;1.60;79.50;;;;;;5959861;23;20396;-68
2020/12/23 10:35:27;;;;;;;19.55;12.75;;;1.60;79.30;;;;;;5974189;23;20435;-67
2020/12/23 10:37:53;;;;;;;16.63;11.95;;;1.60;79.30;;;;;;5975063;23;20391;-69
2020/12/23 10:40:31;;;;;;;20.27;12.55;;;1.60;79.10;;;;;;5979778;23;20411;-68
2020/12/23 10:43:09;;;;;;;;;;;;;;;;;;;;;
2020/12/23 10:45:43;;;;;;;19.25;13.20;;;1.50;78.50;;;;;;5986318;23;20045;-66
2020/12/23 10:48:08;;;;;;;18.55;12.18;;;1.40;78.80;;;;;;5982347;23;20483;-68
2020/12/23 10:50:36;;;;;;;22.75;14.15;;;1.40;79.70;;;;;;5984652;23;20728;-67
2020/12/23 10:53:04;;;;;;;20.00;13.55;;;1.40;80.10;;;;;;5987640;23;20285;-65
2020/12/23 10:55:30;;;;;;;19.48;13.10;;;1.50;80.30;;;;;;5962354;23;20082;-66
2020/12/23 10:57:56;;;;;;;20.20;14.10;;;1.50;80.00;;;;;;5955225;23;20026;-69
2020/12/23 11:00:38;;;;;;;23.10;13.07;;;1.50;80.20;;;;;;5961669;23;20348;-69
2020/12/23 11:03:17;;;;;;;22.83;14.85;;;1.50;80.50;;;;;;5956447;23;20451;-70
2020/12/23 11:05:58;;;;;;;21.98;14.48;;;1.50;80.20;;;;;;5949911;23;20403;-66
2020/12/23 11:09:00;;;;;;;21.95;13.90;;;1.50;80.10;;;;;;5952705;23;20018;-66
2020/12/23 11:15:01;;;;;;;22.48;14.48;;;1.40;79.60;;;;;;5895455;24;20119;-71
2020/12/23 11:17:54;;;;;;;23.63;15.15;;;1.30;79.90;;;;;;5984645;23;20793;-68
2020/12/23 11:20:50;;;;;;;;;;;;;;;;;;;;;
2020/12/23 11:23:58;;;;;;;;;;;;;;;;;;;;;
2020/12/23 11:26:37;;;;;;;22.40;14.32;;;1.30;80.40;;;;;;5976873;23;19960;-72
2020/12/23 11:29:09;;;;;;;22.00;15.15;;;1.40;80.40;;;;;;5966164;23;20365;-67
2020/12/23 11:31:43;;;;;;;23.13;15.27;;;1.40;80.40;;;;;;5978660;23;20422;-63
2020/12/23 11:34:19;;;;;;;24.70;16.27;;;1.40;80.50;;;;;;5958147;23;20441;-66
2020/12/23 11:36:47;;;;;;;25.25;16.25;;;1.30;80.70;;;;;;5955206;23;20641;-65
2020/12/23 11:39:16;;;;;;;25.63;17.20;;;1.30;80.50;;;;;;5973533;23;20367;-65
2020/12/23 11:41:44;;;;;;;25.73;16.08;;;1.30;80.60;;;;;;5974948;23;20327;-69
2020/12/23 11:44:15;;;;;;;26.05;16.23;;;1.30;80.90;;;;;;5989403;23;20439;-69
2020/12/23 11:46:56;;;;;;;23.52;15.18;;;1.30;81.10;;;;;;5947954;23;20237;-69
2020/12/23 11:49:24;;;;;;;28.42;17.33;;;1.30;81.50;;;;;;5957200;23;20495;-67
2020/12/23 11:52:23;;;;;;;24.88;17.30;;;1.30;81.10;;;;;;5964731;23;20411;-66
2020/12/23 11:54:53;;;;;;;26.25;17.23;;;1.30;80.90;;;;;;6025214;23;20265;-65
2020/12/23 11:58:22;;;;;;;22.75;15.05;;;1.20;81.30;;;;;;6019209;23;20055;-70
2020/12/23 12:04:57;;;;;;;24.63;15.52;;;1.30;80.90;;;;;;5837312;24;20421;-62
2020/12/23 12:07:26;;;;;;;25.27;15.93;;;1.20;81.20;;;;;;5903840;24;20615;-66
2020/12/23 12:09:55;;;;;;;25.95;16.00;;;1.20;81.50;;;;;;5903462;24;20044;-70
2020/12/23 12:12:37;;;;;;;23.58;15.85;;;1.20;81.80;;;;;;5906675;23;20093;-69
2020/12/23 12:15:16;;;;;;;26.73;17.15;;;1.20;81.80;;;;;;5949761;23;20407;-67
2020/12/23 12:17:51;;;;;;;27.00;16.25;;;1.30;81.10;;;;;;5981487;23;20612;-70
2020/12/23 12:20:22;;;;;;;24.00;15.68;;;1.30;81.10;;;;;;5977736;23;20354;-67
2020/12/23 12:23:05;;;;;;;;;;;;;;;;;;;;;
2020/12/23 12:25:35;;;;;;;22.08;14.52;;;1.20;81.50;;;;;;5979716;23;20446;-66
2020/12/23 12:28:56;;;;;;;;;;;;;;;;;;;;;
2020/12/23 12:31:45;;;;;;;26.52;16.02;;;1.10;81.70;;;;;;5964817;23;20581;-71
2020/12/23 12:34:33;;;;;;;26.50;16.70;;;1.20;81.70;;;;;;5952298;23;20335;-73
2020/12/23 12:37:15;;;;;;;24.20;16.00;;;1.10;81.00;;;;;;5985423;23;20304;-69
2020/12/23 12:39:56;;;;;;;25.85;17.02;;;1.10;81.30;;;;;;5984046;23;20403;-65
2020/12/23 12:42:21;;;;;;;25.88;15.55;;;1.10;81.60;;;;;;5979694;23;20349;-62
2020/12/23 12:44:47;;;;;;;25.58;15.23;;;1.10;82.00;;;;;;5962611;23;20328;-68
2020/12/23 12:47:15;;;;;;;25.27;16.80;;;1.10;82.50;;;;;;5978419;23;20407;-70
2020/12/23 12:49:41;;;;;;;25.67;15.98;;;1.10;81.70;;;;;;5976125;23;20386;-68
2020/12/23 12:52:15;;;;;;;25.92;16.25;;;1.10;81.90;;;;;;5973819;23;20026;-63
2020/12/23 12:54:41;;;;;;;25.87;15.63;;;1.10;81.50;;;;;;5945998;23;20355;-64
2020/12/23 12:57:06;;;;;;;27.88;15.50;;;1.00;81.70;;;;;;5977926;23;20014;-69
2020/12/23 13:02:59;;;;;;;24.33;15.93;;;1.00;81.90;;;;;;5959795;23;20439;-74
2020/12/23 13:05:24;;;;;;;24.92;15.63;;;0.90;82.00;;;;;;5941391;23;20430;-70
2020/12/23 13:08:01;;;;;;;23.02;14.90;;;0.90;82.30;;;;;;5967151;23;20630;-68
2020/12/23 13:10:27;;;;;;;25.48;15.88;;;0.90;82.40;;;;;;5972735;23;20042;-69
2020/12/23 13:12:52;;;;;;;25.70;15.63;;;0.90;82.70;;;;;;5982035;23;20474;-72
2020/12/23 13:15:21;;;;;;;25.50;15.57;;;0.90;82.80;;;;;;5978129;23;20396;-68
2020/12/23 13:18:13;;;;;;;25.30;15.80;;;0.90;82.90;;;;;;5952501;23;20340;-68
2020/12/23 13:20:37;;;;;;;23.50;14.40;;;0.90;82.70;;;;;;5977641;23;20431;-72
2020/12/23 13:23:45;;;;;;;22.85;15.65;;;0.90;82.90;;;;;;5972850;23;20455;-65
2020/12/23 13:26:14;;;;;;;28.13;16.02;;;0.80;82.90;;;;;;5979397;23;20451;-68
2020/12/23 13:28:57;;;;;;;;;;;;;;;;;;;;;
2020/12/23 13:31:31;;;;;;;23.67;14.35;;;0.80;83.40;;;;;;5975149;23;20308;-71
2020/12/23 13:34:11;;;;;;;24.90;15.27;;;0.80;83.00;;;;;;5976412;23;20408;-72
2020/12/23 13:36:57;;;;;;;23.17;15.30;;;0.80;83.20;;;;;;5972417;23;20007;-69
2020/12/23 13:39:30;;;;;;;24.45;14.90;;;0.80;83.50;;;;;;5964257;23;20691;-70
2020/12/23 13:42:04;;;;;;;24.58;14.93;;;0.70;83.70;;;;;;5953148;23;20335;-69
2020/12/23 13:44:32;;;;;;;25.05;15.32;;;0.70;83.80;;;;;;5976721;23;20406;-69
2020/12/23 13:47:04;;;;;;;23.20;14.82;;;0.60;84.20;;;;;;5955704;23;20559;-71
2020/12/23 13:52:27;;;;;;;22.23;14.20;;;0.50;84.50;;;;;;6032324;23;20498;-64
2020/12/23 13:54:58;;;;;;;24.67;14.55;;;0.50;84.90;;;;;;6036790;23;20602;-71
2020/12/23 13:57:33;;;;;;;24.45;14.10;;;0.50;85.50;;;;;;6043958;23;19998;-66
2020/12/23 13:59:58;;;;;;;;;;;0.50;85.90;;;;;;6014824;23;20302;-68
2020/12/23 14:02:24;;;;;;;23.50;14.43;;;0.40;85.90;;;;;;6038540;23;20177;-67
2020/12/23 14:05:02;;;;;;;25.38;14.98;;;0.40;86.50;;;;;;6042144;23;20347;-69
2020/12/23 14:07:31;;;;;;;24.27;14.90;;;0.40;86.90;;;;;;6042834;23;20421;-72
2020/12/23 14:10:22;;;;;;;21.98;13.55;;;0.40;87.20;;;;;;6036925;23;20350;-68
2020/12/23 14:12:49;;;;;;;21.48;13.77;;;0.30;87.50;;;;;;6034951;23;20403;-66
2020/12/23 14:15:18;;;;;;;23.27;14.82;;;0.30;87.90;;;;;;6012792;23;20458;-66
2020/12/23 14:17:59;;;;;;;21.67;13.90;;;0.20;88.10;;;;;;6014855;23;20014;-67
2020/12/23 14:20:45;;;;;;;26.33;15.48;;;0.20;88.40;;;;;;6038874;23;20351;-63
2020/12/23 14:23:21;;;;;;;20.55;12.60;;;0.20;88.60;;;;;;6012009;23;20457;-67
2020/12/23 14:25:50;;;;;;;22.65;13.55;;;0.10;88.70;;;;;;6016894;23;20449;-70
2020/12/23 14:28:27;;;;;;;24.63;14.35;;;0.10;89.00;;;;;;6042306;23;20014;-70
2020/12/23 14:30:55;;;;;;;21.45;14.32;;;0.10;89.20;;;;;;6045894;23;20307;-70
2020/12/23 14:33:26;;;;;;;24.17;15.20;;;0.10;89.40;;;;;;6043227;23;20006;-65
2020/12/23 14:36:10;;;;;;;;;;;;;;;;;;;;;
2020/12/23 14:39:04;;;;;;;23.67;14.55;;;0.10;89.80;;;;;;6040282;23;20038;-66
2020/12/23 14:41:33;;;;;;;19.80;12.95;;;0.10;90.00;;;;;;6017648;23;20509;-68
2020/12/23 14:44:01;;;;;;;21.60;14.70;;;0.10;90.00;;;;;;6022539;23;20300;-69
2020/12/23 14:46:32;;;;;;;29.35;17.35;;;0.00;90.00;;;;;;6021564;23;20465;-67
2020/12/23 14:49:02;;;;;;;25.33;15.20;;;0.00;90.00;;;;;;6019841;23;20425;-63
2020/12/23 14:51:48;;;;;;;30.83;17.75;;;0.00;90.30;;;;;;6016156;23;20049;-66
2020/12/23 14:54:44;;;;;;;29.73;17.83;;;-0.10;90.40;;;;;;6039027;23;20422;-64
2020/12/23 14:57:16;;;;;;;30.48;17.02;;;-0.10;90.60;;;;;;6019884;23;20011;-66
2020/12/23 15:00:03;;;;;;;29.83;18.70;;;-0.10;90.70;;;;;;6020305;23;20015;-65
